LSZH/ZRH METAR and TAF weather

Enter ICAO airport designator
Station Type Date Time Source
LSZH METAR 2022/01/26 08:20 UTC NOAA

LSZH 260820Z VRB03KT 3000 BR BKN003 M02/M03 Q1032 NOSIG


Station Type Date Time Source
LSZH Decoded METAR 2022/01/26 08:20 UTC NOAA

Zurich-Kloten, Switzerland (LSZH) 47-29N 008-32E 432M
Jan 26, 2022 - 03:20 AM EST / 2022.01.26 0820 UTC
Wind: Variable at 3 MPH (3 KT):0
Visibility: 1 mile(s):0
Sky conditions: mostly cloudy
Weather: mist
Temperature: 28 F (-2 C)
Dew Point: 26 F (-3 C)
Relative Humidity: 92%
Pressure (altimeter): 30.47 in. Hg (1032 hPa)
ob: LSZH 260820Z VRB03KT 3000 BR BKN003 M02/M03 Q1032 NOSIG
cycle: 8

Station Type Date Time Source
LSZH TAF 2022/01/26 09:33 UTC NOAA

TAF LSZH 260825Z 2609/2715 20003KT 3500 BR BKN003 TX04/2614Z TNM05/2702Z TX04/2714Z
BECMG 2610/2612 7000 NSC PROB40 2612/2617 CAVOK
BECMG 2619/2621 4500 BR NSC
BECMG 2621/2624 2000 BCFG PROB40 2700/2709 0400 FZFG VV002
BECMG 2710/2712 7000 NSC

Example: see airport list